createdAt,value
2018-07-13T00:00:04.897Z,15.60
2018-07-13T00:02:33.931Z,15.60
2018-07-13T00:05:03.044Z,15.60
2018-07-13T00:07:32.152Z,15.60
2018-07-13T00:10:01.200Z,15.50
2018-07-13T00:12:30.264Z,15.50
2018-07-13T00:15:06.612Z,15.40
2018-07-13T00:17:35.656Z,15.40
2018-07-13T00:20:05.390Z,15.30
2018-07-13T00:25:03.165Z,15.20
2018-07-13T00:27:32.236Z,15.20
2018-07-13T00:30:01.270Z,15.10
2018-07-13T00:32:30.350Z,15.00
2018-07-13T00:37:28.029Z,15.00
2018-07-13T00:39:57.076Z,15.00
2018-07-13T00:42:26.144Z,14.90
2018-07-13T00:44:55.155Z,14.90
2018-07-13T00:47:24.207Z,14.90
2018-07-13T00:49:53.234Z,14.90
2018-07-13T00:52:22.272Z,14.90
2018-07-13T00:54:51.320Z,14.90
2018-07-13T00:57:20.334Z,14.90
2018-07-13T00:59:49.384Z,14.90
2018-07-13T01:02:18.449Z,14.90
2018-07-13T01:04:47.544Z,14.90
2018-07-13T01:07:16.547Z,14.90
2018-07-13T01:09:45.563Z,14.90
2018-07-13T01:12:14.625Z,14.90
2018-07-13T01:14:43.636Z,14.90
2018-07-13T01:17:12.728Z,14.90
2018-07-13T01:19:41.768Z,14.90
2018-07-13T01:22:10.791Z,14.90
2018-07-13T01:24:39.891Z,15.00
2018-07-13T01:27:08.902Z,15.00
2018-07-13T01:29:37.960Z,15.00
2018-07-13T01:32:07.097Z,15.00
2018-07-13T01:34:36.145Z,14.90
2018-07-13T01:37:05.565Z,14.80
2018-07-13T01:39:34.617Z,14.80
2018-07-13T01:42:03.640Z,14.80
2018-07-13T01:44:32.697Z,14.90
2018-07-13T01:47:01.809Z,14.90
2018-07-13T01:49:30.857Z,14.90
2018-07-13T01:51:59.890Z,14.90
2018-07-13T01:54:28.943Z,14.90
2018-07-13T01:56:57.968Z,14.90
2018-07-13T01:59:27.000Z,14.90
2018-07-13T02:01:56.116Z,14.90
2018-07-13T02:04:25.214Z,14.90
2018-07-13T02:06:54.261Z,14.90
2018-07-13T02:09:23.369Z,14.90
2018-07-13T02:11:52.428Z,15.00
2018-07-13T02:14:21.481Z,15.00
2018-07-13T02:16:50.533Z,15.10
2018-07-13T02:19:19.571Z,15.10
2018-07-13T02:21:48.729Z,15.20
2018-07-13T02:24:17.793Z,15.30
2018-07-13T02:26:46.828Z,15.30
2018-07-13T02:29:15.875Z,15.30
2018-07-13T02:31:44.904Z,15.40
2018-07-13T02:34:13.964Z,15.30
2018-07-13T02:36:42.982Z,15.30
2018-07-13T02:39:12.554Z,15.30
2018-07-13T02:41:41.572Z,15.40
2018-07-13T02:44:10.627Z,15.40
2018-07-13T02:46:39.696Z,15.40
2018-07-13T02:49:08.760Z,15.40
2018-07-13T02:51:37.786Z,15.50
2018-07-13T02:54:07.200Z,15.50
2018-07-13T02:56:36.224Z,15.50
2018-07-13T02:59:05.296Z,15.50
2018-07-13T03:01:34.348Z,15.50
2018-07-13T03:04:03.492Z,15.50
2018-07-13T03:06:32.513Z,15.50
2018-07-13T03:09:01.563Z,15.50
2018-07-13T03:11:30.592Z,15.50
2018-07-13T03:13:59.636Z,15.50
2018-07-13T03:16:28.664Z,15.60
2018-07-13T03:18:57.716Z,15.50
2018-07-13T03:21:26.768Z,15.50
2018-07-13T03:23:55.842Z,15.50
2018-07-13T03:26:24.868Z,15.50
2018-07-13T03:28:53.956Z,15.50
2018-07-13T03:31:22.985Z,15.50
2018-07-13T03:33:52.037Z,15.50
2018-07-13T03:36:21.067Z,15.60
2018-07-13T03:38:50.179Z,15.60
2018-07-13T03:41:19.243Z,15.60
2018-07-13T03:43:48.566Z,15.60
2018-07-13T03:46:17.596Z,15.70
2018-07-13T03:48:46.653Z,15.70
2018-07-13T03:53:44.402Z,15.80
2018-07-13T03:56:13.464Z,15.80
2018-07-13T03:58:42.504Z,15.90
2018-07-13T04:01:11.579Z,15.90
2018-07-13T04:03:40.634Z,15.90
2018-07-13T04:06:09.706Z,16.00
2018-07-13T04:08:38.769Z,16.00
2018-07-13T04:11:07.835Z,16.10
2018-07-13T04:13:36.880Z,16.10
2018-07-13T04:16:05.953Z,16.10
2018-07-13T04:18:34.990Z,16.20
2018-07-13T04:21:04.096Z,16.20
2018-07-13T04:23:33.224Z,16.20
2018-07-13T04:26:02.303Z,16.20
2018-07-13T04:28:32.085Z,16.30
2018-07-13T04:31:01.149Z,16.30
2018-07-13T04:33:30.201Z,16.30
2018-07-13T04:35:59.284Z,16.30
2018-07-13T04:38:28.413Z,16.30
2018-07-13T04:40:57.515Z,16.40
2018-07-13T04:43:26.568Z,16.40
2018-07-13T04:45:55.649Z,16.40
2018-07-13T04:48:24.740Z,16.40
2018-07-13T04:50:53.868Z,16.40
2018-07-13T04:53:22.965Z,16.50
2018-07-13T04:55:52.085Z,16.50
2018-07-13T04:58:21.213Z,16.50
2018-07-13T05:00:50.328Z,16.50
2018-07-13T05:03:19.392Z,16.50
2018-07-13T05:05:48.515Z,16.50
2018-07-13T05:08:17.642Z,16.50
2018-07-13T05:10:46.706Z,16.50
2018-07-13T05:13:15.765Z,16.50
2018-07-13T05:15:44.918Z,16.60
2018-07-13T05:18:13.959Z,16.60
2018-07-13T05:20:43.168Z,16.60
2018-07-13T05:23:12.292Z,16.60
2018-07-13T05:25:41.803Z,16.70
2018-07-13T05:28:10.940Z,16.70
2018-07-13T05:30:40.131Z,16.70
2018-07-13T05:33:09.661Z,16.70
2018-07-13T05:35:38.783Z,16.70
2018-07-13T05:38:08.705Z,16.70
2018-07-13T05:40:37.912Z,16.80
2018-07-13T05:43:07.399Z,16.80
2018-07-13T05:45:36.572Z,16.80
2018-07-13T05:48:05.677Z,16.80
2018-07-13T05:50:34.841Z,16.80
2018-07-13T05:53:04.168Z,16.80
2018-07-13T05:55:33.311Z,16.80
2018-07-13T05:58:02.409Z,16.80
2018-07-13T06:00:32.258Z,16.80
2018-07-13T06:03:01.440Z,16.90
2018-07-13T06:05:30.600Z,16.90
2018-07-13T06:07:59.696Z,17.00
2018-07-13T06:10:28.837Z,17.00
2018-07-13T06:12:57.940Z,17.00
2018-07-13T06:15:27.044Z,17.10
2018-07-13T06:17:56.100Z,17.10
2018-07-13T06:20:25.188Z,17.20
2018-07-13T06:22:54.248Z,17.20
2018-07-13T06:25:23.353Z,17.30
2018-07-13T06:27:52.444Z,17.30
2018-07-13T06:30:21.560Z,17.30
2018-07-13T06:32:50.633Z,17.40
2018-07-13T06:37:48.516Z,17.40
2018-07-13T06:40:17.611Z,17.40
2018-07-13T06:42:46.729Z,17.40
2018-07-13T06:45:15.812Z,17.50
2018-07-13T06:47:45.447Z,17.60
2018-07-13T06:50:14.704Z,17.60
2018-07-13T06:52:44.712Z,17.70
2018-07-13T06:55:15.319Z,17.70
2018-07-13T06:57:55.544Z,17.70
2018-07-13T07:01:10.684Z,17.80
2018-07-13T07:04:51.098Z,17.90
2018-07-13T07:07:23.487Z,18.00
2018-07-13T07:09:57.724Z,18.10
2018-07-13T07:12:52.248Z,18.20
2018-07-13T07:15:22.366Z,18.20
2018-07-13T07:17:51.879Z,18.30
2018-07-13T07:20:20.951Z,18.30
2018-07-13T07:22:50.741Z,18.20
2018-07-13T07:25:19.896Z,18.20
2018-07-13T07:27:49.164Z,18.10
2018-07-13T07:30:18.407Z,18.10
2018-07-13T07:32:47.500Z,18.30
2018-07-13T07:35:16.537Z,18.50
2018-07-13T07:37:47.823Z,18.80
2018-07-13T07:40:16.883Z,18.80
2018-07-13T07:42:46.044Z,18.80
2018-07-13T07:45:15.657Z,18.60
2018-07-13T07:47:44.743Z,18.60
2018-07-13T07:50:14.047Z,18.60
2018-07-13T07:52:43.881Z,18.70
2018-07-13T07:55:14.161Z,18.80
2018-07-13T07:57:43.854Z,18.80
2018-07-13T08:00:12.948Z,18.70
2018-07-13T08:02:42.188Z,18.70
2018-07-13T08:05:11.313Z,18.70
2018-07-13T08:07:40.639Z,18.70
2018-07-13T08:10:09.698Z,18.70
2018-07-13T08:12:38.796Z,18.80
2018-07-13T08:15:07.884Z,19.10
2018-07-13T08:17:37.618Z,19.30
2018-07-13T08:20:18.499Z,19.40
2018-07-13T08:22:58.112Z,19.50
2018-07-13T08:25:28.495Z,19.70
2018-07-13T08:28:01.369Z,19.80
2018-07-13T08:30:34.464Z,19.80
2018-07-13T08:33:03.775Z,19.70
2018-07-13T08:35:32.842Z,19.60
2018-07-13T08:38:02.293Z,19.60
2018-07-13T08:40:31.626Z,19.50
2018-07-13T08:43:01.532Z,19.40
2018-07-13T08:45:30.793Z,19.40
2018-07-13T08:48:00.026Z,19.50
2018-07-13T08:50:29.670Z,19.60
2018-07-13T08:52:59.705Z,19.70
2018-07-13T08:55:29.141Z,19.80
2018-07-13T08:57:58.609Z,19.90
2018-07-13T09:00:27.750Z,20.10
2018-07-13T09:02:56.887Z,20.20
2018-07-13T09:05:25.969Z,20.30
2018-07-13T09:07:55.083Z,20.40
2018-07-13T09:10:24.139Z,20.50
2018-07-13T09:12:53.272Z,20.50
2018-07-13T09:15:22.384Z,20.60
2018-07-13T09:17:51.488Z,20.70
2018-07-13T09:20:20.575Z,20.80
2018-07-13T09:22:49.734Z,20.90
2018-07-13T09:25:18.796Z,21.00
2018-07-13T09:27:47.861Z,21.20
2018-07-13T09:30:16.965Z,21.40
2018-07-13T09:32:46.028Z,21.50
2018-07-13T09:35:15.096Z,21.60
2018-07-13T09:37:44.157Z,21.80
2018-07-13T09:40:13.224Z,21.90
2018-07-13T09:42:42.297Z,22.20
2018-07-13T09:47:40.416Z,22.50
2018-07-13T09:50:09.492Z,22.60
2018-07-13T09:52:38.677Z,22.70
2018-07-13T09:55:07.765Z,22.70
2018-07-13T09:57:36.793Z,22.80
2018-07-13T10:00:05.941Z,22.80
2018-07-13T10:02:35.033Z,22.90
2018-07-13T10:05:04.288Z,22.90
2018-07-13T10:07:33.391Z,23.00
2018-07-13T10:10:02.495Z,22.90
2018-07-13T10:12:31.564Z,23.00
2018-07-13T10:15:00.620Z,23.00
2018-07-13T10:17:29.748Z,22.90
2018-07-13T10:22:29.256Z,22.80
2018-07-13T10:25:01.224Z,22.80
2018-07-13T10:27:32.581Z,22.80
2018-07-13T10:30:03.145Z,22.90
2018-07-13T10:32:32.365Z,23.00
2018-07-13T10:35:02.565Z,23.10
2018-07-13T10:37:31.665Z,23.10
2018-07-13T10:40:00.812Z,23.20
2018-07-13T10:44:58.620Z,23.30
2018-07-13T10:47:27.683Z,23.50
2018-07-13T10:49:56.781Z,23.60
2018-07-13T10:52:25.872Z,23.80
2018-07-13T10:54:54.941Z,23.90
2018-07-13T10:57:23.984Z,23.90
2018-07-13T10:59:53.032Z,23.90
2018-07-13T11:02:22.066Z,24.00
2018-07-13T11:07:19.792Z,24.20
2018-07-13T11:09:48.852Z,24.20
2018-07-13T11:12:17.895Z,24.20
2018-07-13T11:14:46.964Z,24.30
2018-07-13T11:17:16.060Z,24.40
2018-07-13T11:19:45.124Z,24.50
2018-07-13T11:22:14.140Z,24.60
2018-07-13T11:24:43.311Z,24.60
2018-07-13T11:29:41.053Z,24.80
2018-07-13T11:32:10.099Z,24.90
2018-07-13T11:34:39.171Z,25.00
2018-07-13T11:37:08.412Z,25.00
2018-07-13T11:39:37.446Z,24.80
2018-07-13T11:42:06.488Z,24.70
2018-07-13T11:44:35.595Z,24.60
2018-07-13T11:47:04.676Z,24.50
2018-07-13T11:49:33.805Z,24.50
2018-07-13T11:52:02.832Z,24.40
2018-07-13T11:54:31.891Z,24.40
2018-07-13T11:57:00.950Z,24.30
2018-07-13T11:59:30.560Z,24.40
2018-07-13T12:01:59.597Z,24.50
2018-07-13T12:04:28.652Z,24.60
2018-07-13T12:06:57.676Z,24.70
2018-07-13T12:09:26.724Z,24.70
2018-07-13T12:14:24.476Z,24.70
2018-07-13T12:16:53.536Z,24.70
2018-07-13T12:19:22.621Z,24.70
2018-07-13T12:21:51.651Z,24.60
2018-07-13T12:24:20.716Z,24.50
2018-07-13T12:26:49.918Z,24.50
2018-07-13T12:29:18.985Z,24.40
2018-07-13T12:31:48.045Z,24.40
2018-07-13T12:34:17.120Z,24.50
2018-07-13T12:36:46.174Z,24.60
2018-07-13T12:39:15.399Z,24.70
2018-07-13T12:41:44.440Z,24.80
2018-07-13T12:44:13.491Z,24.80
2018-07-13T12:46:42.713Z,24.90
2018-07-13T12:49:11.798Z,25.00
2018-07-13T12:51:40.852Z,25.10
2018-07-13T12:54:10.002Z,25.10
2018-07-13T12:56:38.984Z,25.20
2018-07-13T12:59:08.020Z,25.30
2018-07-13T13:01:37.084Z,25.30
2018-07-13T13:04:06.265Z,25.30
2018-07-13T13:06:35.352Z,25.30
2018-07-13T13:09:05.677Z,25.40
2018-07-13T13:11:34.716Z,25.40
2018-07-13T13:14:03.805Z,25.40
2018-07-13T13:16:32.856Z,25.40
2018-07-13T13:19:01.877Z,25.30
2018-07-13T13:21:31.021Z,25.30
2018-07-13T13:24:00.027Z,25.20
2018-07-13T13:26:29.156Z,25.00
2018-07-13T13:28:58.167Z,24.90
2018-07-13T13:31:27.220Z,24.70
2018-07-13T13:33:56.440Z,24.50
2018-07-13T13:36:25.500Z,24.40
2018-07-13T13:38:54.553Z,24.30
2018-07-13T13:41:23.596Z,24.20
2018-07-13T13:43:52.852Z,24.20
2018-07-13T13:46:21.940Z,24.30
2018-07-13T13:48:50.968Z,24.50
2018-07-13T13:51:20.021Z,24.60
2018-07-13T13:53:49.235Z,24.80
2018-07-13T13:56:18.365Z,24.90
2018-07-13T13:58:47.400Z,25.00
2018-07-13T14:01:16.432Z,25.00
2018-07-13T14:03:45.559Z,25.20
2018-07-13T14:06:14.670Z,25.30
2018-07-13T14:08:43.681Z,25.40
2018-07-13T14:11:12.732Z,25.30
2018-07-13T14:13:41.815Z,25.10
2018-07-13T14:16:10.847Z,25.00
2018-07-13T14:18:39.873Z,24.80
2018-07-13T14:21:09.117Z,24.70
2018-07-13T14:23:38.139Z,24.50
2018-07-13T14:26:07.200Z,24.30
2018-07-13T14:28:36.233Z,24.20
2018-07-13T14:31:05.306Z,24.00
2018-07-13T14:33:34.374Z,23.90
2018-07-13T14:36:03.412Z,23.80
2018-07-13T14:38:32.501Z,23.70
2018-07-13T14:41:01.520Z,23.60
2018-07-13T14:43:30.593Z,23.50
2018-07-13T14:45:59.657Z,23.60
2018-07-13T14:48:28.807Z,23.80
2018-07-13T14:50:58.253Z,24.10
2018-07-13T14:53:27.346Z,24.30
2018-07-13T14:55:56.459Z,24.60
2018-07-13T14:58:25.557Z,24.70
2018-07-13T15:00:54.571Z,24.90
2018-07-13T15:03:23.999Z,25.00
2018-07-13T15:05:53.076Z,25.10
2018-07-13T15:08:22.308Z,25.20
2018-07-13T15:10:51.393Z,25.30
2018-07-13T15:13:20.464Z,25.40
2018-07-13T15:15:49.488Z,25.50
2018-07-13T15:18:18.571Z,25.60
2018-07-13T15:20:47.629Z,25.70
2018-07-13T15:23:16.669Z,25.70
2018-07-13T15:25:45.860Z,25.70
2018-07-13T15:28:14.907Z,25.70
2018-07-13T15:30:44.013Z,25.70
2018-07-13T15:33:13.153Z,25.70
2018-07-13T15:35:42.301Z,25.70
2018-07-13T15:38:11.326Z,25.70
2018-07-13T15:40:40.467Z,25.70
2018-07-13T15:43:09.583Z,25.60
2018-07-13T15:45:38.798Z,25.60
2018-07-13T15:48:07.962Z,25.60
2018-07-13T15:55:40.004Z,25.60
2018-07-13T15:58:09.701Z,25.60
2018-07-13T16:00:38.823Z,25.60
2018-07-13T16:03:07.937Z,25.60
2018-07-13T16:05:37.122Z,25.60
2018-07-13T16:08:06.148Z,25.60
2018-07-13T16:10:35.381Z,25.60
2018-07-13T16:13:04.456Z,25.60
2018-07-13T16:15:33.570Z,25.50
2018-07-13T16:18:02.651Z,25.50
2018-07-13T16:20:31.814Z,25.40
2018-07-13T16:23:00.895Z,25.30
2018-07-13T16:25:30.157Z,25.30
2018-07-13T16:27:59.207Z,25.20
2018-07-13T16:30:28.281Z,25.20
2018-07-13T16:32:57.372Z,25.10
2018-07-13T16:35:26.428Z,25.10
2018-07-13T16:37:55.480Z,25.00
2018-07-13T16:40:24.582Z,25.00
2018-07-13T16:42:53.619Z,24.90
2018-07-13T16:45:22.650Z,24.80
2018-07-13T16:47:51.709Z,24.80
2018-07-13T16:50:20.777Z,24.70
2018-07-13T16:57:47.188Z,24.50
2018-07-13T17:00:16.269Z,24.50
2018-07-13T17:02:45.309Z,24.40
2018-07-13T17:05:14.647Z,24.30
2018-07-13T17:07:44.037Z,24.20
2018-07-13T17:10:13.363Z,24.20
2018-07-13T17:12:42.424Z,24.00
2018-07-13T17:15:11.460Z,23.90
2018-07-13T17:17:40.476Z,23.80
2018-07-13T17:20:09.596Z,23.60
2018-07-13T17:22:38.573Z,23.50
2018-07-13T17:25:07.628Z,23.40
2018-07-13T17:27:36.672Z,23.30
2018-07-13T17:30:06.975Z,23.10
2018-07-13T17:32:35.995Z,23.00
2018-07-13T17:35:05.151Z,22.90
2018-07-13T17:37:34.182Z,22.70
2018-07-13T17:40:03.402Z,22.60
2018-07-13T17:42:32.477Z,22.50
2018-07-13T17:45:01.744Z,22.40
2018-07-13T17:47:30.812Z,22.30
2018-07-13T17:49:59.889Z,22.20
2018-07-13T17:52:29.167Z,22.10
2018-07-13T17:54:58.383Z,22.00
2018-07-13T17:57:27.488Z,21.90
2018-07-13T17:59:56.741Z,21.80
2018-07-13T18:02:25.799Z,21.70
2018-07-13T18:04:54.901Z,21.60
2018-07-13T18:07:23.957Z,21.60
2018-07-13T18:09:53.040Z,21.50
2018-07-13T18:12:22.228Z,21.40
2018-07-13T18:14:51.378Z,21.30
2018-07-13T18:17:20.609Z,21.30
2018-07-13T18:19:49.786Z,21.20
2018-07-13T18:22:18.900Z,21.10
2018-07-13T18:24:47.980Z,21.00
2018-07-13T18:27:17.690Z,20.90
2018-07-13T18:29:46.953Z,20.90
2018-07-13T18:34:44.960Z,20.80
2018-07-13T18:37:14.029Z,20.80
2018-07-13T18:39:43.319Z,20.70
2018-07-13T18:42:12.384Z,20.60
2018-07-13T18:44:41.442Z,20.60
2018-07-13T18:47:11.186Z,20.50
2018-07-13T18:49:40.299Z,20.50
2018-07-13T18:52:09.420Z,20.40
2018-07-13T18:57:07.191Z,20.20
2018-07-13T18:59:36.272Z,20.20
2018-07-13T19:02:05.461Z,20.10
2018-07-13T19:04:34.691Z,20.00
2018-07-13T19:07:03.871Z,19.90
2018-07-13T19:09:32.913Z,19.90
2018-07-13T19:12:02.164Z,19.90
2018-07-13T19:14:31.306Z,19.90
2018-07-13T19:17:00.372Z,19.90
2018-07-13T19:19:29.859Z,19.80
2018-07-13T19:24:27.633Z,19.80
2018-07-13T19:26:56.709Z,19.80
2018-07-13T19:29:25.805Z,19.80
2018-07-13T19:31:54.928Z,19.70
2018-07-13T19:34:23.988Z,19.70
2018-07-13T19:36:53.211Z,19.70
2018-07-13T19:39:22.312Z,19.70
2018-07-13T19:41:51.399Z,19.70
2018-07-13T19:44:20.500Z,19.60
2018-07-13T19:46:49.783Z,19.60
2018-07-13T19:49:19.010Z,19.60
2018-07-13T19:51:48.276Z,19.50
2018-07-13T19:54:17.979Z,19.50
2018-07-13T19:56:47.204Z,19.50
2018-07-13T19:59:16.448Z,19.40
2018-07-13T20:01:48.519Z,19.40
2018-07-13T20:04:18.439Z,19.30
2018-07-13T20:06:47.864Z,19.20
2018-07-13T20:09:17.964Z,19.20
2018-07-13T20:11:49.989Z,19.10
2018-07-13T20:14:19.783Z,19.00
2018-07-13T20:16:49.213Z,19.00
2018-07-13T20:19:18.592Z,18.90
2018-07-13T20:21:47.988Z,19.00
2018-07-13T20:24:17.116Z,18.90
2018-07-13T20:26:46.306Z,18.80
2018-07-13T20:29:15.498Z,18.80
2018-07-13T20:31:44.727Z,18.70
2018-07-13T20:34:13.936Z,18.70
2018-07-13T20:36:43.044Z,18.60
2018-07-13T20:39:12.305Z,18.60
2018-07-13T20:41:41.488Z,18.50
2018-07-13T20:44:10.774Z,18.50
2018-07-13T20:46:39.974Z,18.40
2018-07-13T20:49:09.195Z,18.30
2018-07-13T20:51:38.431Z,18.30
2018-07-13T20:54:08.151Z,18.30
2018-07-13T20:56:37.305Z,18.30
2018-07-13T20:59:06.946Z,18.30
2018-07-13T21:01:36.662Z,18.20
2018-07-13T21:04:05.876Z,18.20
2018-07-13T21:06:35.020Z,18.20
2018-07-13T21:09:04.973Z,18.20
2018-07-13T21:11:34.171Z,18.10
2018-07-13T21:14:03.489Z,18.10
2018-07-13T21:16:32.576Z,18.10
2018-07-13T21:19:02.006Z,18.10
2018-07-13T21:21:31.042Z,18.10
2018-07-13T21:24:00.177Z,18.00
2018-07-13T21:26:29.392Z,18.10
2018-07-13T21:28:58.484Z,18.00
2018-07-13T21:31:27.674Z,18.00
2018-07-13T21:33:56.822Z,18.00
2018-07-13T21:36:25.953Z,17.90
2018-07-13T21:38:55.024Z,18.00
2018-07-13T21:41:24.236Z,17.90
2018-07-13T21:43:53.328Z,17.90
2018-07-13T21:46:22.376Z,17.90
2018-07-13T21:48:51.751Z,17.90
2018-07-13T21:51:20.867Z,17.80
2018-07-13T21:53:49.924Z,17.80
2018-07-13T21:56:18.983Z,17.80
2018-07-13T21:58:48.231Z,17.70
2018-07-13T22:01:17.408Z,17.70
2018-07-13T22:03:46.476Z,17.60
2018-07-13T22:06:15.526Z,17.60
2018-07-13T22:08:44.581Z,17.50
2018-07-13T22:11:13.604Z,17.50
2018-07-13T22:13:42.872Z,17.50
2018-07-13T22:16:12.055Z,17.40
2018-07-13T22:18:41.119Z,17.40
2018-07-13T22:21:10.187Z,17.30
2018-07-13T22:23:39.341Z,17.30
2018-07-13T22:26:08.383Z,17.20
2018-07-13T22:28:37.484Z,17.20
2018-07-13T22:31:06.586Z,17.20
2018-07-13T22:33:35.677Z,17.20
2018-07-13T22:36:04.729Z,17.10
2018-07-13T22:38:33.838Z,17.10
2018-07-13T22:41:02.904Z,17.00
2018-07-13T22:43:32.032Z,17.00
2018-07-13T22:46:01.097Z,16.90
2018-07-13T22:48:30.158Z,16.90
2018-07-13T22:50:59.217Z,16.80
2018-07-13T22:53:28.351Z,16.80
2018-07-13T22:55:57.417Z,16.70
2018-07-13T22:58:26.471Z,16.70
2018-07-13T23:00:55.533Z,16.60
2018-07-13T23:03:24.547Z,16.60
2018-07-13T23:05:53.593Z,16.50
2018-07-13T23:08:22.621Z,16.50
2018-07-13T23:10:51.728Z,16.50
2018-07-13T23:13:20.742Z,16.40
2018-07-13T23:15:49.786Z,16.30
2018-07-13T23:18:19.036Z,16.30
2018-07-13T23:23:16.744Z,16.30
2018-07-13T23:25:45.830Z,16.20
2018-07-13T23:28:14.876Z,16.20
2018-07-13T23:30:43.968Z,16.20
2018-07-13T23:33:13.002Z,16.20
2018-07-13T23:35:42.061Z,16.10
2018-07-13T23:38:11.082Z,16.10
2018-07-13T23:40:40.099Z,16.00
2018-07-13T23:43:09.152Z,16.00
2018-07-13T23:45:38.247Z,16.00
2018-07-13T23:48:07.276Z,15.90
2018-07-13T23:50:36.343Z,15.90
2018-07-13T23:53:05.408Z,15.80
2018-07-13T23:55:34.449Z,15.80
2018-07-13T23:58:03.497Z,15.80
